sensor_id;sensor_type;location;lat;lon;timestamp;pressure;altitude;pressure_sealevel;temperature;humidity
49841;BME280;35738;49.890;5.930;2022-12-18T00:02:07;96577.88;;;-8.19;100.00
49841;BME280;35738;49.890;5.930;2022-12-18T00:04:34;96578.63;;;-8.04;100.00
49841;BME280;35738;49.890;5.930;2022-12-18T00:07:00;96582.31;;;-8.05;100.00
49841;BME280;35738;49.890;5.930;2022-12-18T00:09:27;96574.47;;;-8.13;100.00
49841;BME280;35738;49.890;5.930;2022-12-18T00:12:04;96577.72;;;-8.17;100.00
49841;BME280;35738;49.890;5.930;2022-12-18T00:14:41;96580.44;;;-8.32;100.00
49841;BME280;35738;49.890;5.930;2022-12-18T00:17:08;96582.97;;;-8.24;100.00
49841;BME280;35738;49.890;5.930;2022-12-18T00:19:35;96574.56;;;-8.21;100.00
49841;BME280;35738;49.890;5.930;2022-12-18T00:22:02;96569.78;;;-8.32;100.00
49841;BME280;35738;49.890;5.930;2022-12-18T00:24:28;96570.84;;;-8.33;100.00
49841;BME280;35738;49.890;5.930;2022-12-18T00:26:55;96578.06;;;-8.20;100.00
49841;BME280;35738;49.890;5.930;2022-12-18T00:29:21;96577.63;;;-8.24;100.00
49841;BME280;35738;49.890;5.930;2022-12-18T00:31:48;96576.50;;;-8.15;100.00
49841;BME280;35738;49.890;5.930;2022-12-18T00:34:15;96576.50;;;-8.15;100.00
49841;BME280;35738;49.890;5.930;2022-12-18T00:36:42;96581.56;;;-8.20;100.00
49841;BME280;35738;49.890;5.930;2022-12-18T00:39:10;96579.03;;;-8.28;100.00
49841;BME280;35738;49.890;5.930;2022-12-18T00:41:37;96567.97;;;-8.25;100.00
49841;BME280;35738;49.890;5.930;2022-12-18T00:44:22;96551.34;;;-8.27;100.00
49841;BME280;35738;49.890;5.930;2022-12-18T00:46:49;96549.69;;;-8.28;100.00
49841;BME280;35738;49.890;5.930;2022-12-18T00:49:17;96552.16;;;-8.33;100.00
49841;BME280;35738;49.890;5.930;2022-12-18T00:51:45;96548.91;;;-8.22;100.00
49841;BME280;35738;49.890;5.930;2022-12-18T00:54:13;96555.97;;;-8.14;100.00
49841;BME280;35738;49.890;5.930;2022-12-18T00:56:40;96551.59;;;-7.87;100.00
49841;BME280;35738;49.890;5.930;2022-12-18T00:59:18;96563.97;;;-7.80;99.73
49841;BME280;35738;49.890;5.930;2022-12-18T01:01:45;96559.66;;;-8.15;100.00
49841;BME280;35738;49.890;5.930;2022-12-18T01:04:12;96567.09;;;-8.39;100.00
49841;BME280;35738;49.890;5.930;2022-12-18T01:06:39;96555.41;;;-8.66;100.00
49841;BME280;35738;49.890;5.930;2022-12-18T01:09:06;96559.16;;;-8.60;100.00
49841;BME280;35738;49.890;5.930;2022-12-18T01:11:32;96543.19;;;-8.53;100.00
49841;BME280;35738;49.890;5.930;2022-12-18T01:13:59;96553.47;;;-8.50;100.00
49841;BME280;35738;49.890;5.930;2022-12-18T01:16:26;96539.56;;;-8.46;100.00
49841;BME280;35738;49.890;5.930;2022-12-18T01:18:53;96542.28;;;-8.39;100.00
49841;BME280;35738;49.890;5.930;2022-12-18T01:21:21;96537.41;;;-8.22;100.00
49841;BME280;35738;49.890;5.930;2022-12-18T01:23:51;96549.88;;;-8.02;100.00
49841;BME280;35738;49.890;5.930;2022-12-18T01:26:19;96543.56;;;-7.94;100.00
49841;BME280;35738;49.890;5.930;2022-12-18T01:28:46;96553.66;;;-7.89;100.00
49841;BME280;35738;49.890;5.930;2022-12-18T01:31:27;96550.38;;;-7.85;100.00
49841;BME280;35738;49.890;5.930;2022-12-18T01:33:55;96543.41;;;-7.79;100.00
49841;BME280;35738;49.890;5.930;2022-12-18T01:36:36;96542.63;;;-7.73;100.00
49841;BME280;35738;49.890;5.930;2022-12-18T01:39:09;96542.03;;;-7.69;99.91
49841;BME280;35738;49.890;5.930;2022-12-18T01:41:36;96549.22;;;-7.69;99.67
49841;BME280;35738;49.890;5.930;2022-12-18T01:47:38;96538.19;;;-7.46;98.96
49841;BME280;35738;49.890;5.930;2022-12-18T01:50:14;96533.69;;;-7.46;98.84
49841;BME280;35738;49.890;5.930;2022-12-18T01:52:45;96545.16;;;-7.52;98.26
49841;BME280;35738;49.890;5.930;2022-12-18T01:55:14;96548.88;;;-7.46;98.16
49841;BME280;35738;49.890;5.930;2022-12-18T01:57:42;96555.50;;;-7.42;97.33
49841;BME280;35738;49.890;5.930;2022-12-18T02:00:13;96554.69;;;-7.43;96.71
49841;BME280;35738;49.890;5.930;2022-12-18T02:02:41;96559.16;;;-7.50;97.33
49841;BME280;35738;49.890;5.930;2022-12-18T02:05:10;96539.03;;;-7.46;96.97
49841;BME280;35738;49.890;5.930;2022-12-18T02:08:06;96553.13;;;-7.65;97.29
49841;BME280;35738;49.890;5.930;2022-12-18T02:13:30;96539.78;;;-7.65;98.16
49841;BME280;35738;49.890;5.930;2022-12-18T02:16:24;96538.28;;;-7.81;98.29
49841;BME280;35738;49.890;5.930;2022-12-18T02:18:59;96538.06;;;-7.86;98.85
49841;BME280;35738;49.890;5.930;2022-12-18T02:25:26;96535.25;;;-7.71;98.71
49841;BME280;35738;49.890;5.930;2022-12-18T02:27:59;96542.28;;;-7.57;97.98
49841;BME280;35738;49.890;5.930;2022-12-18T02:30:29;96531.22;;;-7.47;97.75
49841;BME280;35738;49.890;5.930;2022-12-18T02:32:58;96532.44;;;-7.50;97.87
49841;BME280;35738;49.890;5.930;2022-12-18T02:35:29;96531.00;;;-7.46;98.31
49841;BME280;35738;49.890;5.930;2022-12-18T02:37:57;96532.22;;;-7.55;98.33
49841;BME280;35738;49.890;5.930;2022-12-18T02:40:26;96531.41;;;-7.55;98.86
49841;BME280;35738;49.890;5.930;2022-12-18T02:42:54;96538.19;;;-7.46;98.35
49841;BME280;35738;49.890;5.930;2022-12-18T02:45:20;96543.16;;;-7.43;97.87
49841;BME280;35738;49.890;5.930;2022-12-18T02:47:49;96536.81;;;-7.35;97.98
49841;BME280;35738;49.890;5.930;2022-12-18T02:50:38;96534.72;;;-7.47;98.62
49841;BME280;35738;49.890;5.930;2022-12-18T02:54:00;96533.31;;;-7.43;98.50
49841;BME280;35738;49.890;5.930;2022-12-18T02:56:17;96543.41;;;-7.31;98.01
49841;BME280;35738;49.890;5.930;2022-12-18T02:58:55;96532.50;;;-7.37;97.82
49841;BME280;35738;49.890;5.930;2022-12-18T03:01:30;96540.94;;;-7.40;97.83
49841;BME280;35738;49.890;5.930;2022-12-18T03:04:28;96539.91;;;-7.39;97.92
49841;BME280;35738;49.890;5.930;2022-12-18T03:06:59;96528.34;;;-7.46;97.52
49841;BME280;35738;49.890;5.930;2022-12-18T03:09:35;96534.88;;;-7.55;97.64
49841;BME280;35738;49.890;5.930;2022-12-18T03:12:15;96553.16;;;-7.58;97.63
49841;BME280;35738;49.890;5.930;2022-12-18T03:15:07;96543.50;;;-7.59;97.94
49841;BME280;35738;49.890;5.930;2022-12-18T03:17:51;96546.38;;;-7.61;97.59
49841;BME280;35738;49.890;5.930;2022-12-18T03:20:21;96540.41;;;-7.63;98.44
49841;BME280;35738;49.890;5.930;2022-12-18T03:22:51;96540.81;;;-7.66;97.84
49841;BME280;35738;49.890;5.930;2022-12-18T03:25:20;96534.00;;;-7.75;98.48
49841;BME280;35738;49.890;5.930;2022-12-18T03:27:51;96532.31;;;-7.83;97.87
49841;BME280;35738;49.890;5.930;2022-12-18T03:30:20;96522.47;;;-7.82;98.45
49841;BME280;35738;49.890;5.930;2022-12-18T03:32:51;96525.00;;;-7.61;98.03
49841;BME280;35738;49.890;5.930;2022-12-18T03:35:31;96518.00;;;-7.62;97.84
49841;BME280;35738;49.890;5.930;2022-12-18T03:37:59;96507.31;;;-7.69;98.39
49841;BME280;35738;49.890;5.930;2022-12-18T03:46:12;96509.72;;;-7.87;99.57
49841;BME280;35738;49.890;5.930;2022-12-18T03:48:44;96497.75;;;-7.97;99.54
49841;BME280;35738;49.890;5.930;2022-12-18T03:51:24;96491.13;;;-8.08;100.00
49841;BME280;35738;49.890;5.930;2022-12-18T03:54:00;96492.75;;;-8.14;99.97
49841;BME280;35738;49.890;5.930;2022-12-18T03:56:36;96492.59;;;-8.06;100.00
49841;BME280;35738;49.890;5.930;2022-12-18T03:59:05;96497.69;;;-8.11;100.00
49841;BME280;35738;49.890;5.930;2022-12-18T04:01:38;96497.72;;;-8.04;100.00
49841;BME280;35738;49.890;5.930;2022-12-18T04:04:06;96486.22;;;-8.05;100.00
49841;BME280;35738;49.890;5.930;2022-12-18T04:06:35;96492.00;;;-7.94;100.00
49841;BME280;35738;49.890;5.930;2022-12-18T04:09:03;96487.31;;;-7.92;100.00
49841;BME280;35738;49.890;5.930;2022-12-18T04:11:31;96476.88;;;-7.81;99.37
49841;BME280;35738;49.890;5.930;2022-12-18T04:13:58;96474.81;;;-7.79;99.89
49841;BME280;35738;49.890;5.930;2022-12-18T04:16:26;96474.81;;;-7.85;99.81
49841;BME280;35738;49.890;5.930;2022-12-18T04:18:53;96472.09;;;-7.92;100.00
49841;BME280;35738;49.890;5.930;2022-12-18T04:21:20;96467.38;;;-7.96;99.91
49841;BME280;35738;49.890;5.930;2022-12-18T04:23:47;96474.72;;;-8.05;100.00
49841;BME280;35738;49.890;5.930;2022-12-18T04:26:13;96474.91;;;-8.13;100.00
49841;BME280;35738;49.890;5.930;2022-12-18T04:28:40;96474.91;;;-8.13;100.00
49841;BME280;35738;49.890;5.930;2022-12-18T04:31:07;96467.41;;;-8.24;100.00
49841;BME280;35738;49.890;5.930;2022-12-18T04:33:33;96473.00;;;-8.19;100.00
49841;BME280;35738;49.890;5.930;2022-12-18T04:36:00;96476.66;;;-8.27;100.00
49841;BME280;35738;49.890;5.930;2022-12-18T04:38:27;96475.09;;;-8.15;100.00
49841;BME280;35738;49.890;5.930;2022-12-18T04:40:53;96473.44;;;-8.16;100.00
49841;BME280;35738;49.890;5.930;2022-12-18T04:43:20;96471.63;;;-8.09;100.00
49841;BME280;35738;49.890;5.930;2022-12-18T04:45:47;96472.88;;;-8.05;100.00
49841;BME280;35738;49.890;5.930;2022-12-18T04:48:13;96482.53;;;-8.04;100.00
49841;BME280;35738;49.890;5.930;2022-12-18T04:50:40;96492.19;;;-8.03;100.00
49841;BME280;35738;49.890;5.930;2022-12-18T04:53:06;96492.00;;;-8.01;100.00
49841;BME280;35738;49.890;5.930;2022-12-18T04:55:33;96493.22;;;-8.04;100.00
49841;BME280;35738;49.890;5.930;2022-12-18T04:58:00;96489.91;;;-8.06;100.00
49841;BME280;35738;49.890;5.930;2022-12-18T05:00:26;96488.03;;;-8.12;100.00
49841;BME280;35738;49.890;5.930;2022-12-18T05:02:54;96506.91;;;-8.13;100.00
49841;BME280;35738;49.890;5.930;2022-12-18T05:05:20;96511.56;;;-8.22;100.00
49841;BME280;35738;49.890;5.930;2022-12-18T05:07:47;96518.50;;;-8.27;100.00
49841;BME280;35738;49.890;5.930;2022-12-18T05:10:14;96535.31;;;-8.34;100.00
49841;BME280;35738;49.890;5.930;2022-12-18T05:12:40;96540.44;;;-8.32;100.00
49841;BME280;35738;49.890;5.930;2022-12-18T05:15:30;96544.31;;;-8.41;100.00
49841;BME280;35738;49.890;5.930;2022-12-18T05:17:58;96548.19;;;-8.44;100.00
49841;BME280;35738;49.890;5.930;2022-12-18T05:20:26;96557.75;;;-8.56;100.00
49841;BME280;35738;49.890;5.930;2022-12-18T05:22:54;96564.63;;;-8.68;100.00
49841;BME280;35738;49.890;5.930;2022-12-18T05:25:21;96564.69;;;-8.83;100.00
49841;BME280;35738;49.890;5.930;2022-12-18T05:27:48;96559.50;;;-8.91;100.00
49841;BME280;35738;49.890;5.930;2022-12-18T05:30:15;96559.22;;;-8.96;100.00
49841;BME280;35738;49.890;5.930;2022-12-18T05:32:42;96561.81;;;-9.03;100.00
49841;BME280;35738;49.890;5.930;2022-12-18T05:35:10;96557.00;;;-9.14;100.00
49841;BME280;35738;49.890;5.930;2022-12-18T05:37:37;96559.41;;;-9.19;100.00
49841;BME280;35738;49.890;5.930;2022-12-18T05:40:09;96550.91;;;-9.29;100.00
49841;BME280;35738;49.890;5.930;2022-12-18T05:42:35;96557.63;;;-9.33;100.00
49841;BME280;35738;49.890;5.930;2022-12-18T05:45:03;96561.88;;;-9.39;100.00
49841;BME280;35738;49.890;5.930;2022-12-18T05:47:29;96566.88;;;-9.50;100.00
49841;BME280;35738;49.890;5.930;2022-12-18T05:49:56;96565.41;;;-9.53;100.00
49841;BME280;35738;49.890;5.930;2022-12-18T05:52:23;96568.53;;;-9.49;100.00
49841;BME280;35738;49.890;5.930;2022-12-18T05:54:49;96561.09;;;-9.54;100.00
49841;BME280;35738;49.890;5.930;2022-12-18T05:57:16;96558.34;;;-9.60;100.00
49841;BME280;35738;49.890;5.930;2022-12-18T05:59:43;96560.19;;;-9.61;100.00
49841;BME280;35738;49.890;5.930;2022-12-18T06:02:09;96572.56;;;-9.68;100.00
49841;BME280;35738;49.890;5.930;2022-12-18T06:04:36;96560.38;;;-9.77;100.00
49841;BME280;35738;49.890;5.930;2022-12-18T06:07:03;96561.31;;;-9.85;100.00
49841;BME280;35738;49.890;5.930;2022-12-18T06:09:30;96549.38;;;-9.89;100.00
49841;BME280;35738;49.890;5.930;2022-12-18T06:11:56;96556.28;;;-9.95;100.00
49841;BME280;35738;49.890;5.930;2022-12-18T06:14:23;96558.75;;;-9.93;100.00
49841;BME280;35738;49.890;5.930;2022-12-18T06:16:52;96564.34;;;-10.03;100.00
49841;BME280;35738;49.890;5.930;2022-12-18T06:19:19;96560.31;;;-9.99;100.00
49841;BME280;35738;49.890;5.930;2022-12-18T06:21:46;96553.69;;;-9.88;100.00
49841;BME280;35738;49.890;5.930;2022-12-18T06:24:17;96562.03;;;-9.76;100.00
49841;BME280;35738;49.890;5.930;2022-12-18T06:26:44;96558.63;;;-9.70;100.00
49841;BME280;35738;49.890;5.930;2022-12-18T06:29:10;96546.97;;;-9.54;100.00
49841;BME280;35738;49.890;5.930;2022-12-18T06:31:37;96546.78;;;-9.53;100.00
49841;BME280;35738;49.890;5.930;2022-12-18T06:34:04;96542.91;;;-9.29;100.00
49841;BME280;35738;49.890;5.930;2022-12-18T06:36:31;96547.88;;;-9.05;100.00
49841;BME280;35738;49.890;5.930;2022-12-18T06:38:58;96538.25;;;-8.84;100.00
49841;BME280;35738;49.890;5.930;2022-12-18T06:41:25;96551.00;;;-8.52;100.00
49841;BME280;35738;49.890;5.930;2022-12-18T06:43:51;96548.25;;;-8.30;100.00
49841;BME280;35738;49.890;5.930;2022-12-18T06:46:24;96536.41;;;-8.21;100.00
49841;BME280;35738;49.890;5.930;2022-12-18T06:48:51;96547.56;;;-8.11;100.00
49841;BME280;35738;49.890;5.930;2022-12-18T06:51:22;96545.13;;;-8.06;100.00
49841;BME280;35738;49.890;5.930;2022-12-18T06:53:49;96551.69;;;-8.09;100.00
49841;BME280;35738;49.890;5.930;2022-12-18T06:56:16;96549.25;;;-8.04;100.00
49841;BME280;35738;49.890;5.930;2022-12-18T06:58:43;96549.03;;;-8.09;100.00
49841;BME280;35738;49.890;5.930;2022-12-18T07:01:11;96551.06;;;-8.11;100.00
49841;BME280;35738;49.890;5.930;2022-12-18T07:03:39;96560.09;;;-8.12;100.00
49841;BME280;35738;49.890;5.930;2022-12-18T07:06:13;96566.19;;;-8.18;100.00
49841;BME280;35738;49.890;5.930;2022-12-18T07:08:40;96558.56;;;-8.21;100.00
49841;BME280;35738;49.890;5.930;2022-12-18T07:11:06;96565.13;;;-8.23;100.00
49841;BME280;35738;49.890;5.930;2022-12-18T07:13:33;96551.34;;;-8.27;100.00
49841;BME280;35738;49.890;5.930;2022-12-18T07:16:14;96537.75;;;-8.32;100.00
49841;BME280;35738;49.890;5.930;2022-12-18T07:18:49;96530.00;;;-8.34;100.00
49841;BME280;35738;49.890;5.930;2022-12-18T07:21:18;96534.72;;;-8.29;100.00
49841;BME280;35738;49.890;5.930;2022-12-18T07:23:45;96522.38;;;-8.30;100.00
49841;BME280;35738;49.890;5.930;2022-12-18T07:26:17;96516.66;;;-8.27;100.00
49841;BME280;35738;49.890;5.930;2022-12-18T07:28:44;96513.59;;;-8.24;100.00
49841;BME280;35738;49.890;5.930;2022-12-18T07:31:13;96516.28;;;-8.24;100.00
49841;BME280;35738;49.890;5.930;2022-12-18T07:33:41;96505.59;;;-8.24;100.00
49841;BME280;35738;49.890;5.930;2022-12-18T07:36:09;96515.47;;;-8.18;100.00
49841;BME280;35738;49.890;5.930;2022-12-18T07:38:36;96507.53;;;-8.11;100.00
49841;BME280;35738;49.890;5.930;2022-12-18T07:41:13;96522.09;;;-8.14;100.00
49841;BME280;35738;49.890;5.930;2022-12-18T07:43:40;96525.41;;;-8.12;100.00
49841;BME280;35738;49.890;5.930;2022-12-18T07:46:09;96518.22;;;-8.11;100.00
49841;BME280;35738;49.890;5.930;2022-12-18T07:48:38;96517.53;;;-8.20;100.00
49841;BME280;35738;49.890;5.930;2022-12-18T07:51:06;96516.50;;;-8.19;100.00
49841;BME280;35738;49.890;5.930;2022-12-18T07:53:34;96512.44;;;-8.15;100.00
49841;BME280;35738;49.890;5.930;2022-12-18T07:56:05;96515.69;;;-8.19;100.00
49841;BME280;35738;49.890;5.930;2022-12-18T07:58:52;96513.59;;;-8.24;100.00
49841;BME280;35738;49.890;5.930;2022-12-18T08:01:18;96518.31;;;-8.26;100.00
49841;BME280;35738;49.890;5.930;2022-12-18T08:03:46;96515.63;;;-8.26;100.00
49841;BME280;35738;49.890;5.930;2022-12-18T08:06:13;96523.66;;;-8.26;100.00
49841;BME280;35738;49.890;5.930;2022-12-18T08:08:40;96514.38;;;-8.30;100.00
49841;BME280;35738;49.890;5.930;2022-12-18T08:11:08;96514.38;;;-8.30;100.00
49841;BME280;35738;49.890;5.930;2022-12-18T08:13:35;96505.75;;;-8.32;100.00
49841;BME280;35738;49.890;5.930;2022-12-18T08:16:06;96507.19;;;-8.36;100.00
49841;BME280;35738;49.890;5.930;2022-12-18T08:18:35;96511.91;;;-8.32;100.00
49841;BME280;35738;49.890;5.930;2022-12-18T08:21:13;96517.72;;;-8.21;100.00
49841;BME280;35738;49.890;5.930;2022-12-18T08:23:42;96519.34;;;-8.27;100.00
49841;BME280;35738;49.890;5.930;2022-12-18T08:26:10;96517.47;;;-8.26;100.00
49841;BME280;35738;49.890;5.930;2022-12-18T08:28:37;96508.84;;;-8.28;100.00
49841;BME280;35738;49.890;5.930;2022-12-18T08:31:04;96518.94;;;-8.24;100.00
49841;BME280;35738;49.890;5.930;2022-12-18T08:33:31;96508.34;;;-8.17;100.00
49841;BME280;35738;49.890;5.930;2022-12-18T08:35:59;96522.72;;;-8.12;100.00
49841;BME280;35738;49.890;5.930;2022-12-18T08:38:26;96522.75;;;-8.05;100.00
49841;BME280;35738;49.890;5.930;2022-12-18T08:40:59;96519.91;;;-8.04;100.00
49841;BME280;35738;49.890;5.930;2022-12-18T08:43:27;96527.28;;;-8.06;100.00
49841;BME280;35738;49.890;5.930;2022-12-18T08:46:12;96539.03;;;-7.93;100.00
49841;BME280;35738;49.890;5.930;2022-12-18T08:48:39;96527.53;;;-7.94;100.00
49841;BME280;35738;49.890;5.930;2022-12-18T08:51:06;96520.34;;;-7.93;100.00
49841;BME280;35738;49.890;5.930;2022-12-18T08:53:33;96537.63;;;-7.89;100.00
49841;BME280;35738;49.890;5.930;2022-12-18T08:56:01;96536.41;;;-7.87;100.00
49841;BME280;35738;49.890;5.930;2022-12-18T08:58:29;96538.88;;;-7.85;100.00
49841;BME280;35738;49.890;5.930;2022-12-18T09:01:03;96534.38;;;-7.78;100.00
49841;BME280;35738;49.890;5.930;2022-12-18T09:03:30;96524.34;;;-7.76;100.00
49841;BME280;35738;49.890;5.930;2022-12-18T09:05:57;96531.94;;;-7.73;100.00
49841;BME280;35738;49.890;5.930;2022-12-18T09:08:24;96538.94;;;-7.72;100.00
49841;BME280;35738;49.890;5.930;2022-12-18T09:10:51;96534.00;;;-7.75;100.00
49841;BME280;35738;49.890;5.930;2022-12-18T09:13:18;96529.47;;;-7.75;100.00
49841;BME280;35738;49.890;5.930;2022-12-18T09:15:47;96538.09;;;-7.79;100.00
49841;BME280;35738;49.890;5.930;2022-12-18T09:18:15;96532.94;;;-7.81;100.00
49841;BME280;35738;49.890;5.930;2022-12-18T09:20:43;96540.13;;;-7.81;100.00
49841;BME280;35738;49.890;5.930;2022-12-18T09:23:11;96536.84;;;-7.83;100.00
49841;BME280;35738;49.890;5.930;2022-12-18T09:25:38;96531.94;;;-7.73;100.00
49841;BME280;35738;49.890;5.930;2022-12-18T09:28:15;96540.97;;;-7.74;100.00
49841;BME280;35738;49.890;5.930;2022-12-18T09:30:48;96536.88;;;-7.70;100.00
49841;BME280;35738;49.890;5.930;2022-12-18T09:33:16;96537.72;;;-7.70;100.00
49841;BME280;35738;49.890;5.930;2022-12-18T09:35:44;96538.13;;;-7.66;100.00
49841;BME280;35738;49.890;5.930;2022-12-18T09:38:16;96536.03;;;-7.77;100.00
49841;BME280;35738;49.890;5.930;2022-12-18T09:40:49;96532.31;;;-7.83;100.00
49841;BME280;35738;49.890;5.930;2022-12-18T09:43:21;96528.59;;;-7.88;100.00
49841;BME280;35738;49.890;5.930;2022-12-18T09:45:55;96523.25;;;-7.88;100.00
49841;BME280;35738;49.890;5.930;2022-12-18T09:48:37;96512.78;;;-7.90;100.00
49841;BME280;35738;49.890;5.930;2022-12-18T09:51:15;96523.47;;;-7.83;100.00
49841;BME280;35738;49.890;5.930;2022-12-18T09:53:47;96517.94;;;-7.82;100.00
49841;BME280;35738;49.890;5.930;2022-12-18T09:56:18;96527.16;;;-7.84;100.00
49841;BME280;35738;49.890;5.930;2022-12-18T09:58:53;96528.19;;;-7.85;100.00
49841;BME280;35738;49.890;5.930;2022-12-18T10:01:24;96520.84;;;-7.77;100.00
49841;BME280;35738;49.890;5.930;2022-12-18T10:03:59;96502.16;;;-7.70;100.00
49841;BME280;35738;49.890;5.930;2022-12-18T10:06:35;96508.56;;;-7.58;100.00
49841;BME280;35738;49.890;5.930;2022-12-18T10:14:23;96492.22;;;-7.42;100.00
49841;BME280;35738;49.890;5.930;2022-12-18T10:17:07;96498.78;;;-7.38;100.00
49841;BME280;35738;49.890;5.930;2022-12-18T10:19:40;96478.69;;;-7.20;100.00
49841;BME280;35738;49.890;5.930;2022-12-18T10:22:35;96475.38;;;-7.22;100.00
49841;BME280;35738;49.890;5.930;2022-12-18T10:25:19;96483.00;;;-7.06;100.00
49841;BME280;35738;49.890;5.930;2022-12-18T10:27:52;96466.75;;;-7.18;100.00
49841;BME280;35738;49.890;5.930;2022-12-18T10:30:22;96472.94;;;-7.17;100.00
49841;BME280;35738;49.890;5.930;2022-12-18T10:32:49;96467.16;;;-7.27;100.00
49841;BME280;35738;49.890;5.930;2022-12-18T10:35:20;96465.09;;;-7.39;100.00
49841;BME280;35738;49.890;5.930;2022-12-18T10:40:59;96462.63;;;-7.33;100.00
49841;BME280;35738;49.890;5.930;2022-12-18T10:43:36;96457.91;;;-7.31;100.00
49841;BME280;35738;49.890;5.930;2022-12-18T10:53:56;96461.81;;;-7.21;100.00
49841;BME280;35738;49.890;5.930;2022-12-18T10:56:25;96456.88;;;-7.24;100.00
49841;BME280;35738;49.890;5.930;2022-12-18T10:59:07;96460.19;;;-7.15;100.00
49841;BME280;35738;49.890;5.930;2022-12-18T11:01:55;96454.22;;;-7.17;100.00
49841;BME280;35738;49.890;5.930;2022-12-18T11:04:28;96456.69;;;-6.96;100.00
49841;BME280;35738;49.890;5.930;2022-12-18T11:09:34;96448.03;;;-6.72;100.00
49841;BME280;35738;49.890;5.930;2022-12-18T11:12:08;96454.63;;;-6.87;100.00
49841;BME280;35738;49.890;5.930;2022-12-18T11:14:48;96457.94;;;-7.05;100.00
49841;BME280;35738;49.890;5.930;2022-12-18T11:17:30;96463.28;;;-7.05;100.00
49841;BME280;35738;49.890;5.930;2022-12-18T11:19:59;96463.28;;;-7.05;100.00
49841;BME280;35738;49.890;5.930;2022-12-18T11:22:29;96471.69;;;-7.08;100.00
49841;BME280;35738;49.890;5.930;2022-12-18T11:24:58;96464.91;;;-6.97;100.00
49841;BME280;35738;49.890;5.930;2022-12-18T11:28:06;96461.63;;;-7.06;100.00
49841;BME280;35738;49.890;5.930;2022-12-18T11:33:38;96469.25;;;-6.90;100.00
49841;BME280;35738;49.890;5.930;2022-12-18T11:36:30;96474.59;;;-7.03;100.00
49841;BME280;35738;49.890;5.930;2022-12-18T11:39:07;96455.88;;;-6.96;100.00
49841;BME280;35738;49.890;5.930;2022-12-18T11:41:48;96449.50;;;-7.02;100.00
49841;BME280;35738;49.890;5.930;2022-12-18T11:47:38;96447.84;;;-6.96;100.00
49841;BME280;35738;49.890;5.930;2022-12-18T11:50:13;96443.31;;;-6.89;100.00
49841;BME280;35738;49.890;5.930;2022-12-18T11:52:41;96440.84;;;-6.71;100.00
49841;BME280;35738;49.890;5.930;2022-12-18T11:55:13;96440.44;;;-6.68;100.00
49841;BME280;35738;49.890;5.930;2022-12-18T12:00:37;96435.50;;;-6.84;100.00
49841;BME280;35738;49.890;5.930;2022-12-18T12:18:33;96418.63;;;-6.72;100.00
49841;BME280;35738;49.890;5.930;2022-12-18T12:21:21;96420.91;;;-6.62;100.00
49841;BME280;35738;49.890;5.930;2022-12-18T12:23:53;96421.91;;;-6.63;100.00
49841;BME280;35738;49.890;5.930;2022-12-18T12:29:19;96427.88;;;-6.61;100.00
49841;BME280;35738;49.890;5.930;2022-12-18T12:34:19;96424.34;;;-6.48;100.00
49841;BME280;35738;49.890;5.930;2022-12-18T12:37:03;96422.28;;;-6.46;100.00
49841;BME280;35738;49.890;5.930;2022-12-18T12:39:37;96416.97;;;-6.59;100.00
49841;BME280;35738;49.890;5.930;2022-12-18T12:42:14;96414.91;;;-6.57;100.00
49841;BME280;35738;49.890;5.930;2022-12-18T12:45:05;96411.41;;;-6.51;100.00
49841;BME280;35738;49.890;5.930;2022-12-18T12:47:38;96413.25;;;-6.45;100.00
49841;BME280;35738;49.890;5.930;2022-12-18T12:50:14;96403.78;;;-6.54;100.00
49841;BME280;35738;49.890;5.930;2022-12-18T12:52:54;96411.41;;;-6.51;100.00
49841;BME280;35738;49.890;5.930;2022-12-18T12:55:26;96405.66;;;-6.55;100.00
49841;BME280;35738;49.890;5.930;2022-12-18T13:00:55;96392.66;;;-6.45;100.00
49841;BME280;35738;49.890;5.930;2022-12-18T13:06:50;96392.66;;;-6.51;100.00
49841;BME280;35738;49.890;5.930;2022-12-18T13:09:20;96397.41;;;-6.47;100.00
49841;BME280;35738;49.890;5.930;2022-12-18T13:11:47;96386.66;;;-6.33;100.00
49841;BME280;35738;49.890;5.930;2022-12-18T13:14:40;96376.13;;;-6.28;100.00
49841;BME280;35738;49.890;5.930;2022-12-18T13:20:13;96369.72;;;-6.21;100.00
49841;BME280;35738;49.890;5.930;2022-12-18T13:22:48;96374.81;;;-6.13;100.00
49841;BME280;35738;49.890;5.930;2022-12-18T13:25:36;96373.19;;;-6.14;100.00
49841;BME280;35738;49.890;5.930;2022-12-18T13:28:14;96373.13;;;-6.00;100.00
49841;BME280;35738;49.890;5.930;2022-12-18T13:30:43;96366.34;;;-6.03;100.00
49841;BME280;35738;49.890;5.930;2022-12-18T13:36:02;96372.91;;;-5.99;100.00
49841;BME280;35738;49.890;5.930;2022-12-18T13:43:52;96372.38;;;-6.21;100.00
49841;BME280;35738;49.890;5.930;2022-12-18T13:46:24;96361.22;;;-6.11;100.00
49841;BME280;35738;49.890;5.930;2022-12-18T13:51:43;96367.41;;;-6.11;100.00
49841;BME280;35738;49.890;5.930;2022-12-18T13:56:48;96368.22;;;-6.10;100.00
49841;BME280;35738;49.890;5.930;2022-12-18T13:59:19;96367.00;;;-6.14;100.00
49841;BME280;35738;49.890;5.930;2022-12-18T14:01:57;96365.50;;;-6.03;100.00
49841;BME280;35738;49.890;5.930;2022-12-18T14:04:30;96365.31;;;-6.09;100.00
49841;BME280;35738;49.890;5.930;2022-12-18T14:07:07;96378.91;;;-6.03;100.00
49841;BME280;35738;49.890;5.930;2022-12-18T14:10:11;96377.91;;;-6.09;100.00
49841;BME280;35738;49.890;5.930;2022-12-18T14:13:06;96366.63;;;-6.24;100.00
49841;BME280;35738;49.890;5.930;2022-12-18T14:15:38;96365.56;;;-6.17;100.00
49841;BME280;35738;49.890;5.930;2022-12-18T14:18:35;96360.47;;;-6.25;100.00
49841;BME280;35738;49.890;5.930;2022-12-18T14:21:05;96369.34;;;-6.31;100.00
49841;BME280;35738;49.890;5.930;2022-12-18T14:23:34;96365.84;;;-6.31;100.00
49841;BME280;35738;49.890;5.930;2022-12-18T14:26:18;96367.06;;;-6.27;100.00
49841;BME280;35738;49.890;5.930;2022-12-18T14:28:46;96361.31;;;-6.31;100.00
49841;BME280;35738;49.890;5.930;2022-12-18T14:31:21;96365.25;;;-6.40;100.00
49841;BME280;35738;49.890;5.930;2022-12-18T14:33:49;96354.97;;;-6.43;100.00
49841;BME280;35738;49.890;5.930;2022-12-18T14:36:21;96357.63;;;-6.36;100.00
49841;BME280;35738;49.890;5.930;2022-12-18T14:38:53;96364.19;;;-6.32;100.00
49841;BME280;35738;49.890;5.930;2022-12-18T14:41:21;96348.63;;;-6.49;100.00
49841;BME280;35738;49.890;5.930;2022-12-18T14:43:50;96359.09;;;-6.41;100.00